sensor_id;sensor_type;location;lat;lon;timestamp;P1;durP1;ratioP1;P2;durP2;ratioP2
29294;SDS011;16305;48.566;8.846;2022-09-09T00:01:59;4.40;;;1.30;;
29294;SDS011;16305;48.566;8.846;2022-09-09T00:04:30;2.00;;;1.10;;
29294;SDS011;16305;48.566;8.846;2022-09-09T00:07:03;1.83;;;1.00;;
29294;SDS011;16305;48.566;8.846;2022-09-09T00:12:12;1.63;;;0.90;;
29294;SDS011;16305;48.566;8.846;2022-09-09T00:14:51;1.80;;;0.60;;
29294;SDS011;16305;48.566;8.846;2022-09-09T00:17:26;0.83;;;0.80;;
29294;SDS011;16305;48.566;8.846;2022-09-09T00:23:27;3.77;;;1.03;;
29294;SDS011;16305;48.566;8.846;2022-09-09T00:25:57;4.20;;;0.83;;
29294;SDS011;16305;48.566;8.846;2022-09-09T00:28:33;2.27;;;0.70;;
29294;SDS011;16305;48.566;8.846;2022-09-09T00:31:15;6.00;;;0.80;;
29294;SDS011;16305;48.566;8.846;2022-09-09T00:33:50;2.40;;;1.00;;
29294;SDS011;16305;48.566;8.846;2022-09-09T00:36:18;1.50;;;0.90;;
29294;SDS011;16305;48.566;8.846;2022-09-09T00:38:49;3.67;;;0.77;;
29294;SDS011;16305;48.566;8.846;2022-09-09T00:41:28;2.57;;;1.10;;
29294;SDS011;16305;48.566;8.846;2022-09-09T00:47:08;2.73;;;0.93;;
29294;SDS011;16305;48.566;8.846;2022-09-09T00:52:44;2.33;;;1.10;;
29294;SDS011;16305;48.566;8.846;2022-09-09T00:55:48;1.80;;;0.87;;
29294;SDS011;16305;48.566;8.846;2022-09-09T00:58:21;2.27;;;0.90;;
29294;SDS011;16305;48.566;8.846;2022-09-09T01:00:50;3.70;;;1.40;;
29294;SDS011;16305;48.566;8.846;2022-09-09T01:03:22;2.00;;;1.00;;
29294;SDS011;16305;48.566;8.846;2022-09-09T01:11:21;3.40;;;1.40;;
29294;SDS011;16305;48.566;8.846;2022-09-09T01:14:13;3.40;;;1.07;;
29294;SDS011;16305;48.566;8.846;2022-09-09T01:16:50;3.43;;;0.90;;
29294;SDS011;16305;48.566;8.846;2022-09-09T01:19:22;3.73;;;1.10;;
29294;SDS011;16305;48.566;8.846;2022-09-09T01:22:07;1.20;;;0.90;;
29294;SDS011;16305;48.566;8.846;2022-09-09T01:25:01;3.03;;;1.10;;
29294;SDS011;16305;48.566;8.846;2022-09-09T01:27:43;1.93;;;1.07;;
29294;SDS011;16305;48.566;8.846;2022-09-09T01:30:11;2.00;;;1.23;;
29294;SDS011;16305;48.566;8.846;2022-09-09T01:32:43;2.20;;;1.23;;
29294;SDS011;16305;48.566;8.846;2022-09-09T01:38:11;5.57;;;1.23;;
29294;SDS011;16305;48.566;8.846;2022-09-09T01:40:37;1.83;;;0.90;;
29294;SDS011;16305;48.566;8.846;2022-09-09T01:43:04;3.60;;;1.50;;
29294;SDS011;16305;48.566;8.846;2022-09-09T01:45:29;3.57;;;1.43;;
29294;SDS011;16305;48.566;8.846;2022-09-09T01:47:55;3.43;;;1.30;;
29294;SDS011;16305;48.566;8.846;2022-09-09T01:50:22;3.47;;;1.10;;
29294;SDS011;16305;48.566;8.846;2022-09-09T01:52:50;2.33;;;1.20;;
29294;SDS011;16305;48.566;8.846;2022-09-09T01:55:21;3.20;;;1.03;;
29294;SDS011;16305;48.566;8.846;2022-09-09T02:00:41;3.97;;;1.23;;
29294;SDS011;16305;48.566;8.846;2022-09-09T02:05:54;2.10;;;1.20;;
29294;SDS011;16305;48.566;8.846;2022-09-09T02:08:24;2.07;;;1.00;;
29294;SDS011;16305;48.566;8.846;2022-09-09T02:13:32;4.17;;;1.07;;
29294;SDS011;16305;48.566;8.846;2022-09-09T02:16:08;3.03;;;1.30;;
29294;SDS011;16305;48.566;8.846;2022-09-09T02:18:48;2.40;;;1.10;;
29294;SDS011;16305;48.566;8.846;2022-09-09T02:21:33;2.13;;;1.07;;
29294;SDS011;16305;48.566;8.846;2022-09-09T02:24:00;1.87;;;1.23;;
29294;SDS011;16305;48.566;8.846;2022-09-09T02:26:29;1.70;;;1.07;;
29294;SDS011;16305;48.566;8.846;2022-09-09T02:28:58;2.87;;;1.20;;
29294;SDS011;16305;48.566;8.846;2022-09-09T02:31:26;3.23;;;1.37;;
29294;SDS011;16305;48.566;8.846;2022-09-09T02:33:54;2.57;;;1.00;;
29294;SDS011;16305;48.566;8.846;2022-09-09T02:36:23;2.27;;;1.10;;
29294;SDS011;16305;48.566;8.846;2022-09-09T02:38:50;3.23;;;0.97;;
29294;SDS011;16305;48.566;8.846;2022-09-09T02:41:30;1.93;;;0.90;;
29294;SDS011;16305;48.566;8.846;2022-09-09T02:43:58;1.27;;;0.80;;
29294;SDS011;16305;48.566;8.846;2022-09-09T02:46:27;3.03;;;1.00;;
29294;SDS011;16305;48.566;8.846;2022-09-09T02:49:11;3.43;;;1.30;;
29294;SDS011;16305;48.566;8.846;2022-09-09T02:51:52;5.93;;;1.30;;
29294;SDS011;16305;48.566;8.846;2022-09-09T02:54:31;3.40;;;1.20;;
29294;SDS011;16305;48.566;8.846;2022-09-09T02:57:12;2.30;;;0.90;;
29294;SDS011;16305;48.566;8.846;2022-09-09T02:59:46;2.43;;;1.20;;
29294;SDS011;16305;48.566;8.846;2022-09-09T03:02:13;3.80;;;1.10;;
29294;SDS011;16305;48.566;8.846;2022-09-09T03:04:39;2.37;;;1.20;;
29294;SDS011;16305;48.566;8.846;2022-09-09T03:07:05;3.43;;;1.20;;
29294;SDS011;16305;48.566;8.846;2022-09-09T03:09:31;2.23;;;1.10;;
29294;SDS011;16305;48.566;8.846;2022-09-09T03:11:59;3.13;;;1.13;;
29294;SDS011;16305;48.566;8.846;2022-09-09T03:14:25;4.93;;;1.30;;
29294;SDS011;16305;48.566;8.846;2022-09-09T03:16:51;1.70;;;1.20;;
29294;SDS011;16305;48.566;8.846;2022-09-09T03:19:17;4.13;;;1.50;;
29294;SDS011;16305;48.566;8.846;2022-09-09T03:21:43;2.27;;;1.30;;
29294;SDS011;16305;48.566;8.846;2022-09-09T03:24:10;2.07;;;1.20;;
29294;SDS011;16305;48.566;8.846;2022-09-09T03:26:35;3.83;;;1.27;;
29294;SDS011;16305;48.566;8.846;2022-09-09T03:29:02;1.60;;;1.00;;
29294;SDS011;16305;48.566;8.846;2022-09-09T03:31:31;2.70;;;1.43;;
29294;SDS011;16305;48.566;8.846;2022-09-09T03:33:57;4.73;;;1.40;;
29294;SDS011;16305;48.566;8.846;2022-09-09T03:36:23;2.37;;;1.40;;
29294;SDS011;16305;48.566;8.846;2022-09-09T03:38:51;1.77;;;1.10;;
29294;SDS011;16305;48.566;8.846;2022-09-09T03:41:16;3.33;;;1.60;;
29294;SDS011;16305;48.566;8.846;2022-09-09T03:43:43;5.17;;;1.30;;
29294;SDS011;16305;48.566;8.846;2022-09-09T03:46:09;1.60;;;1.40;;
29294;SDS011;16305;48.566;8.846;2022-09-09T03:48:34;2.87;;;1.43;;
29294;SDS011;16305;48.566;8.846;2022-09-09T03:51:00;2.17;;;1.17;;
29294;SDS011;16305;48.566;8.846;2022-09-09T03:53:26;1.60;;;1.20;;
29294;SDS011;16305;48.566;8.846;2022-09-09T03:55:53;2.37;;;1.40;;
29294;SDS011;16305;48.566;8.846;2022-09-09T03:58:21;3.67;;;1.40;;
29294;SDS011;16305;48.566;8.846;2022-09-09T04:00:59;2.90;;;1.53;;
29294;SDS011;16305;48.566;8.846;2022-09-09T04:03:26;2.40;;;1.37;;
29294;SDS011;16305;48.566;8.846;2022-09-09T04:05:52;3.13;;;1.50;;
29294;SDS011;16305;48.566;8.846;2022-09-09T04:08:19;3.40;;;1.47;;
29294;SDS011;16305;48.566;8.846;2022-09-09T04:10:46;2.23;;;1.37;;
29294;SDS011;16305;48.566;8.846;2022-09-09T04:13:13;4.33;;;1.40;;
29294;SDS011;16305;48.566;8.846;2022-09-09T04:15:41;2.57;;;1.50;;
29294;SDS011;16305;48.566;8.846;2022-09-09T04:18:08;2.33;;;1.33;;
29294;SDS011;16305;48.566;8.846;2022-09-09T04:20:33;2.37;;;1.20;;
29294;SDS011;16305;48.566;8.846;2022-09-09T04:23:00;1.50;;;1.23;;
29294;SDS011;16305;48.566;8.846;2022-09-09T04:25:26;2.60;;;1.30;;
29294;SDS011;16305;48.566;8.846;2022-09-09T04:27:55;2.43;;;1.57;;
29294;SDS011;16305;48.566;8.846;2022-09-09T04:30:21;2.50;;;1.33;;
29294;SDS011;16305;48.566;8.846;2022-09-09T04:32:47;3.07;;;1.43;;
29294;SDS011;16305;48.566;8.846;2022-09-09T04:35:12;3.97;;;1.43;;
29294;SDS011;16305;48.566;8.846;2022-09-09T04:37:38;3.53;;;1.53;;
29294;SDS011;16305;48.566;8.846;2022-09-09T04:40:04;3.73;;;1.40;;
29294;SDS011;16305;48.566;8.846;2022-09-09T04:42:30;3.67;;;1.50;;
29294;SDS011;16305;48.566;8.846;2022-09-09T04:45:00;2.93;;;1.47;;
29294;SDS011;16305;48.566;8.846;2022-09-09T04:47:26;1.93;;;1.57;;
29294;SDS011;16305;48.566;8.846;2022-09-09T04:49:52;1.70;;;1.30;;
29294;SDS011;16305;48.566;8.846;2022-09-09T04:52:19;2.43;;;1.40;;
29294;SDS011;16305;48.566;8.846;2022-09-09T04:54:45;2.67;;;1.40;;
29294;SDS011;16305;48.566;8.846;2022-09-09T04:57:10;2.10;;;1.47;;
29294;SDS011;16305;48.566;8.846;2022-09-09T04:59:36;6.27;;;2.00;;
29294;SDS011;16305;48.566;8.846;2022-09-09T05:02:02;1.97;;;1.30;;
29294;SDS011;16305;48.566;8.846;2022-09-09T05:04:28;2.83;;;1.60;;
29294;SDS011;16305;48.566;8.846;2022-09-09T05:06:54;3.03;;;1.40;;
29294;SDS011;16305;48.566;8.846;2022-09-09T05:09:20;2.17;;;1.40;;
29294;SDS011;16305;48.566;8.846;2022-09-09T05:11:46;2.90;;;1.43;;
29294;SDS011;16305;48.566;8.846;2022-09-09T05:14:11;2.93;;;1.60;;
29294;SDS011;16305;48.566;8.846;2022-09-09T05:16:37;2.70;;;1.40;;
29294;SDS011;16305;48.566;8.846;2022-09-09T05:19:03;3.63;;;1.70;;
29294;SDS011;16305;48.566;8.846;2022-09-09T05:21:28;4.20;;;2.03;;
29294;SDS011;16305;48.566;8.846;2022-09-09T05:23:55;2.43;;;1.40;;
29294;SDS011;16305;48.566;8.846;2022-09-09T05:26:21;1.97;;;1.43;;
29294;SDS011;16305;48.566;8.846;2022-09-09T05:28:47;3.00;;;1.57;;
29294;SDS011;16305;48.566;8.846;2022-09-09T05:31:14;3.93;;;1.60;;
29294;SDS011;16305;48.566;8.846;2022-09-09T05:33:42;2.57;;;1.87;;
29294;SDS011;16305;48.566;8.846;2022-09-09T05:36:11;2.83;;;1.70;;
29294;SDS011;16305;48.566;8.846;2022-09-09T05:38:41;1.33;;;1.10;;
29294;SDS011;16305;48.566;8.846;2022-09-09T05:41:08;4.03;;;1.63;;
29294;SDS011;16305;48.566;8.846;2022-09-09T05:43:35;2.63;;;1.30;;
29294;SDS011;16305;48.566;8.846;2022-09-09T05:46:03;5.53;;;1.60;;
29294;SDS011;16305;48.566;8.846;2022-09-09T05:48:36;5.03;;;1.50;;
29294;SDS011;16305;48.566;8.846;2022-09-09T05:51:07;3.80;;;1.43;;
29294;SDS011;16305;48.566;8.846;2022-09-09T05:53:37;4.20;;;1.67;;
29294;SDS011;16305;48.566;8.846;2022-09-09T05:58:30;3.10;;;1.50;;
29294;SDS011;16305;48.566;8.846;2022-09-09T06:01:03;3.40;;;1.40;;
29294;SDS011;16305;48.566;8.846;2022-09-09T06:03:34;3.23;;;1.40;;
29294;SDS011;16305;48.566;8.846;2022-09-09T06:06:05;1.60;;;1.27;;
29294;SDS011;16305;48.566;8.846;2022-09-09T06:08:33;3.83;;;1.63;;
29294;SDS011;16305;48.566;8.846;2022-09-09T06:11:06;4.03;;;1.80;;
29294;SDS011;16305;48.566;8.846;2022-09-09T06:13:33;5.10;;;1.90;;
29294;SDS011;16305;48.566;8.846;2022-09-09T06:16:00;2.53;;;1.50;;
29294;SDS011;16305;48.566;8.846;2022-09-09T06:18:26;2.30;;;1.53;;
29294;SDS011;16305;48.566;8.846;2022-09-09T06:20:59;2.77;;;1.70;;
29294;SDS011;16305;48.566;8.846;2022-09-09T06:23:26;2.23;;;1.70;;
29294;SDS011;16305;48.566;8.846;2022-09-09T06:26:06;4.40;;;1.80;;
29294;SDS011;16305;48.566;8.846;2022-09-09T06:28:35;1.60;;;1.50;;
29294;SDS011;16305;48.566;8.846;2022-09-09T06:31:02;2.10;;;1.47;;
29294;SDS011;16305;48.566;8.846;2022-09-09T06:33:34;1.90;;;1.50;;
29294;SDS011;16305;48.566;8.846;2022-09-09T06:36:04;2.70;;;1.90;;
29294;SDS011;16305;48.566;8.846;2022-09-09T06:38:30;2.40;;;1.60;;
29294;SDS011;16305;48.566;8.846;2022-09-09T06:40:57;2.73;;;1.63;;
29294;SDS011;16305;48.566;8.846;2022-09-09T06:43:24;3.53;;;1.70;;
29294;SDS011;16305;48.566;8.846;2022-09-09T06:45:57;3.87;;;1.90;;
29294;SDS011;16305;48.566;8.846;2022-09-09T06:48:30;4.70;;;1.50;;
29294;SDS011;16305;48.566;8.846;2022-09-09T06:51:09;4.10;;;2.00;;
29294;SDS011;16305;48.566;8.846;2022-09-09T06:53:36;5.77;;;2.17;;
29294;SDS011;16305;48.566;8.846;2022-09-09T06:56:17;4.57;;;1.70;;
29294;SDS011;16305;48.566;8.846;2022-09-09T06:58:48;19.97;;;2.90;;
29294;SDS011;16305;48.566;8.846;2022-09-09T07:01:18;4.97;;;1.80;;
29294;SDS011;16305;48.566;8.846;2022-09-09T07:03:46;3.97;;;1.57;;
29294;SDS011;16305;48.566;8.846;2022-09-09T07:06:16;3.70;;;1.73;;
29294;SDS011;16305;48.566;8.846;2022-09-09T07:08:49;3.60;;;1.47;;
29294;SDS011;16305;48.566;8.846;2022-09-09T07:11:15;2.33;;;1.23;;
29294;SDS011;16305;48.566;8.846;2022-09-09T07:13:41;2.80;;;1.60;;
29294;SDS011;16305;48.566;8.846;2022-09-09T07:16:08;4.40;;;1.20;;
29294;SDS011;16305;48.566;8.846;2022-09-09T07:18:39;5.50;;;1.50;;
29294;SDS011;16305;48.566;8.846;2022-09-09T07:21:04;3.60;;;1.47;;
29294;SDS011;16305;48.566;8.846;2022-09-09T07:23:31;1.43;;;1.20;;
29294;SDS011;16305;48.566;8.846;2022-09-09T07:25:57;1.57;;;1.30;;
29294;SDS011;16305;48.566;8.846;2022-09-09T07:28:24;2.73;;;1.37;;
29294;SDS011;16305;48.566;8.846;2022-09-09T07:30:55;2.33;;;1.53;;
29294;SDS011;16305;48.566;8.846;2022-09-09T07:33:23;2.40;;;1.20;;
29294;SDS011;16305;48.566;8.846;2022-09-09T07:35:49;2.87;;;1.47;;
29294;SDS011;16305;48.566;8.846;2022-09-09T07:38:15;3.40;;;1.30;;
29294;SDS011;16305;48.566;8.846;2022-09-09T07:40:41;3.93;;;1.47;;
29294;SDS011;16305;48.566;8.846;2022-09-09T07:43:07;3.47;;;1.30;;
29294;SDS011;16305;48.566;8.846;2022-09-09T07:45:33;3.80;;;1.37;;
29294;SDS011;16305;48.566;8.846;2022-09-09T07:48:00;5.53;;;1.70;;
29294;SDS011;16305;48.566;8.846;2022-09-09T07:50:26;3.27;;;1.20;;
29294;SDS011;16305;48.566;8.846;2022-09-09T07:52:52;2.43;;;1.50;;
29294;SDS011;16305;48.566;8.846;2022-09-09T07:55:19;6.87;;;1.40;;
29294;SDS011;16305;48.566;8.846;2022-09-09T07:57:45;4.43;;;1.50;;
29294;SDS011;16305;48.566;8.846;2022-09-09T08:00:12;2.27;;;1.23;;
29294;SDS011;16305;48.566;8.846;2022-09-09T08:02:39;3.50;;;1.40;;
29294;SDS011;16305;48.566;8.846;2022-09-09T08:05:05;5.33;;;1.90;;
29294;SDS011;16305;48.566;8.846;2022-09-09T08:07:31;4.23;;;1.13;;
29294;SDS011;16305;48.566;8.846;2022-09-09T08:09:56;2.10;;;1.30;;
29294;SDS011;16305;48.566;8.846;2022-09-09T08:12:22;7.67;;;1.47;;
29294;SDS011;16305;48.566;8.846;2022-09-09T08:14:48;4.00;;;1.70;;
29294;SDS011;16305;48.566;8.846;2022-09-09T08:17:13;3.73;;;1.50;;
29294;SDS011;16305;48.566;8.846;2022-09-09T08:19:39;2.47;;;1.33;;
29294;SDS011;16305;48.566;8.846;2022-09-09T08:22:04;4.90;;;1.50;;
29294;SDS011;16305;48.566;8.846;2022-09-09T08:24:30;4.53;;;1.20;;
29294;SDS011;16305;48.566;8.846;2022-09-09T08:26:56;1.97;;;1.03;;
29294;SDS011;16305;48.566;8.846;2022-09-09T08:29:22;5.27;;;1.43;;
29294;SDS011;16305;48.566;8.846;2022-09-09T08:31:49;3.90;;;1.10;;
29294;SDS011;16305;48.566;8.846;2022-09-09T08:34:22;2.70;;;1.07;;
29294;SDS011;16305;48.566;8.846;2022-09-09T08:36:48;4.57;;;1.40;;
29294;SDS011;16305;48.566;8.846;2022-09-09T08:39:15;4.23;;;1.27;;
29294;SDS011;16305;48.566;8.846;2022-09-09T08:45:02;2.47;;;1.23;;
29294;SDS011;16305;48.566;8.846;2022-09-09T08:55:41;1.50;;;1.00;;
29294;SDS011;16305;48.566;8.846;2022-09-09T08:58:25;2.70;;;1.00;;
29294;SDS011;16305;48.566;8.846;2022-09-09T09:00:57;2.40;;;1.40;;
29294;SDS011;16305;48.566;8.846;2022-09-09T09:11:53;3.80;;;1.00;;
29294;SDS011;16305;48.566;8.846;2022-09-09T09:14:25;3.23;;;0.87;;
29294;SDS011;16305;48.566;8.846;2022-09-09T09:16:58;2.83;;;0.73;;
29294;SDS011;16305;48.566;8.846;2022-09-09T09:19:24;1.87;;;0.80;;
29294;SDS011;16305;48.566;8.846;2022-09-09T09:21:57;4.47;;;1.10;;
29294;SDS011;16305;48.566;8.846;2022-09-09T09:24:47;2.13;;;0.87;;
29294;SDS011;16305;48.566;8.846;2022-09-09T09:30:43;1.47;;;0.77;;
29294;SDS011;16305;48.566;8.846;2022-09-09T09:35:42;2.83;;;0.90;;
29294;SDS011;16305;48.566;8.846;2022-09-09T09:38:14;2.00;;;0.80;;
29294;SDS011;16305;48.566;8.846;2022-09-09T09:40:49;1.83;;;0.73;;
29294;SDS011;16305;48.566;8.846;2022-09-09T09:43:20;3.83;;;1.03;;
29294;SDS011;16305;48.566;8.846;2022-09-09T09:45:49;7.00;;;1.03;;
29294;SDS011;16305;48.566;8.846;2022-09-09T09:48:14;5.37;;;1.30;;
29294;SDS011;16305;48.566;8.846;2022-09-09T09:50:56;1.80;;;0.63;;
29294;SDS011;16305;48.566;8.846;2022-09-09T09:53:25;2.03;;;1.00;;
29294;SDS011;16305;48.566;8.846;2022-09-09T09:55:59;5.73;;;1.20;;
29294;SDS011;16305;48.566;8.846;2022-09-09T09:58:26;3.77;;;1.20;;
29294;SDS011;16305;48.566;8.846;2022-09-09T10:00:56;2.30;;;1.20;;
29294;SDS011;16305;48.566;8.846;2022-09-09T10:03:31;2.97;;;0.83;;
29294;SDS011;16305;48.566;8.846;2022-09-09T10:06:02;2.50;;;0.83;;
29294;SDS011;16305;48.566;8.846;2022-09-09T10:08:28;1.80;;;1.00;;
29294;SDS011;16305;48.566;8.846;2022-09-09T10:19:21;3.23;;;1.47;;
29294;SDS011;16305;48.566;8.846;2022-09-09T10:25:05;5.20;;;1.07;;
29294;SDS011;16305;48.566;8.846;2022-09-09T10:30:20;3.37;;;0.87;;
29294;SDS011;16305;48.566;8.846;2022-09-09T10:32:53;3.70;;;1.03;;
29294;SDS011;16305;48.566;8.846;2022-09-09T10:35:34;2.80;;;0.60;;
29294;SDS011;16305;48.566;8.846;2022-09-09T10:38:39;3.33;;;0.80;;
29294;SDS011;16305;48.566;8.846;2022-09-09T10:52:53;2.60;;;0.60;;
29294;SDS011;16305;48.566;8.846;2022-09-09T10:55:24;3.23;;;0.80;;
29294;SDS011;16305;48.566;8.846;2022-09-09T10:57:58;2.23;;;0.90;;
29294;SDS011;16305;48.566;8.846;2022-09-09T11:00:37;2.37;;;0.80;;
29294;SDS011;16305;48.566;8.846;2022-09-09T11:03:09;3.83;;;0.70;;
29294;SDS011;16305;48.566;8.846;2022-09-09T11:06:28;3.50;;;0.87;;
29294;SDS011;16305;48.566;8.846;2022-09-09T11:08:40;2.03;;;0.60;;
29294;SDS011;16305;48.566;8.846;2022-09-09T11:14:12;0.60;;;0.60;;
29294;SDS011;16305;48.566;8.846;2022-09-09T11:16:47;2.47;;;0.50;;
29294;SDS011;16305;48.566;8.846;2022-09-09T11:22:07;0.97;;;0.47;;
29294;SDS011;16305;48.566;8.846;2022-09-09T11:24:50;1.30;;;0.60;;
29294;SDS011;16305;48.566;8.846;2022-09-09T11:35:40;1.03;;;0.50;;
29294;SDS011;16305;48.566;8.846;2022-09-09T11:41:10;1.30;;;0.40;;
29294;SDS011;16305;48.566;8.846;2022-09-09T11:43:40;3.10;;;0.77;;
29294;SDS011;16305;48.566;8.846;2022-09-09T11:46:07;0.83;;;0.37;;
29294;SDS011;16305;48.566;8.846;2022-09-09T11:48:35;0.50;;;0.50;;
29294;SDS011;16305;48.566;8.846;2022-09-09T11:56:26;0.83;;;0.33;;
29294;SDS011;16305;48.566;8.846;2022-09-09T11:59:22;1.27;;;0.43;;
29294;SDS011;16305;48.566;8.846;2022-09-09T12:01:58;1.60;;;0.73;;
29294;SDS011;16305;48.566;8.846;2022-09-09T12:04:31;1.47;;;0.60;;
29294;SDS011;16305;48.566;8.846;2022-09-09T12:14:58;2.47;;;0.43;;
29294;SDS011;16305;48.566;8.846;2022-09-09T12:17:26;1.37;;;0.73;;
29294;SDS011;16305;48.566;8.846;2022-09-09T12:20:12;3.80;;;0.60;;
29294;SDS011;16305;48.566;8.846;2022-09-09T12:28:09;1.07;;;0.50;;
29294;SDS011;16305;48.566;8.846;2022-09-09T12:33:20;4.20;;;0.93;;
29294;SDS011;16305;48.566;8.846;2022-09-09T12:35:49;3.10;;;1.10;;
29294;SDS011;16305;48.566;8.846;2022-09-09T12:38:31;1.80;;;0.83;;
29294;SDS011;16305;48.566;8.846;2022-09-09T12:41:00;2.77;;;1.03;;
29294;SDS011;16305;48.566;8.846;2022-09-09T12:43:26;3.17;;;0.67;;
29294;SDS011;16305;48.566;8.846;2022-09-09T12:45:54;3.13;;;0.50;;
29294;SDS011;16305;48.566;8.846;2022-09-09T12:48:35;2.43;;;0.70;;
29294;SDS011;16305;48.566;8.846;2022-09-09T12:51:04;2.80;;;0.57;;
29294;SDS011;16305;48.566;8.846;2022-09-09T12:53:40;2.77;;;0.53;;
29294;SDS011;16305;48.566;8.846;2022-09-09T12:56:07;1.57;;;0.50;;
29294;SDS011;16305;48.566;8.846;2022-09-09T13:03:43;0.60;;;0.30;;
29294;SDS011;16305;48.566;8.846;2022-09-09T13:06:11;2.73;;;0.53;;
29294;SDS011;16305;48.566;8.846;2022-09-09T13:08:42;1.90;;;0.40;;
29294;SDS011;16305;48.566;8.846;2022-09-09T13:11:10;1.63;;;0.43;;
29294;SDS011;16305;48.566;8.846;2022-09-09T13:13:41;1.00;;;0.50;;
29294;SDS011;16305;48.566;8.846;2022-09-09T13:16:25;4.73;;;0.60;;
29294;SDS011;16305;48.566;8.846;2022-09-09T13:18:56;3.03;;;0.50;;
29294;SDS011;16305;48.566;8.846;2022-09-09T13:21:33;1.30;;;0.50;;
29294;SDS011;16305;48.566;8.846;2022-09-09T13:24:00;1.73;;;0.37;;
29294;SDS011;16305;48.566;8.846;2022-09-09T13:26:28;2.30;;;0.40;;
29294;SDS011;16305;48.566;8.846;2022-09-09T13:28:55;1.73;;;0.40;;
29294;SDS011;16305;48.566;8.846;2022-09-09T13:31:33;3.37;;;0.57;;
29294;SDS011;16305;48.566;8.846;2022-09-09T13:34:10;1.13;;;0.40;;
29294;SDS011;16305;48.566;8.846;2022-09-09T13:36:52;2.43;;;0.30;;
29294;SDS011;16305;48.566;8.846;2022-09-09T13:39:19;4.37;;;0.40;;
29294;SDS011;16305;48.566;8.846;2022-09-09T13:41:44;0.40;;;0.20;;
29294;SDS011;16305;48.566;8.846;2022-09-09T13:44:20;0.73;;;0.30;;
29294;SDS011;16305;48.566;8.846;2022-09-09T13:46:59;1.50;;;0.40;;
29294;SDS011;16305;48.566;8.846;2022-09-09T13:49:30;0.50;;;0.30;;
29294;SDS011;16305;48.566;8.846;2022-09-09T13:52:14;1.00;;;0.40;;
29294;SDS011;16305;48.566;8.846;2022-09-09T13:54:43;1.57;;;0.50;;
29294;SDS011;16305;48.566;8.846;2022-09-09T13:57:16;1.63;;;0.23;;
29294;SDS011;16305;48.566;8.846;2022-09-09T13:59:44;1.37;;;0.13;;
29294;SDS011;16305;48.566;8.846;2022-09-09T14:02:11;0.30;;;0.20;;
29294;SDS011;16305;48.566;8.846;2022-09-09T14:04:36;2.47;;;0.30;;
29294;SDS011;16305;48.566;8.846;2022-09-09T14:07:02;0.40;;;0.20;;
29294;SDS011;16305;48.566;8.846;2022-09-09T14:09:28;1.57;;;0.20;;
29294;SDS011;16305;48.566;8.846;2022-09-09T14:11:54;1.60;;;0.50;;
29294;SDS011;16305;48.566;8.846;2022-09-09T14:14:22;3.37;;;0.30;;
29294;SDS011;16305;48.566;8.846;2022-09-09T14:16:48;0.17;;;0.10;;
29294;SDS011;16305;48.566;8.846;2022-09-09T14:19:13;1.50;;;0.30;;
29294;SDS011;16305;48.566;8.846;2022-09-09T14:21:39;1.37;;;0.40;;
29294;SDS011;16305;48.566;8.846;2022-09-09T14:24:04;0.27;;;0.10;;
29294;SDS011;16305;48.566;8.846;2022-09-09T14:26:30;1.10;;;0.30;;
29294;SDS011;16305;48.566;8.846;2022-09-09T14:28:57;2.40;;;0.40;;
29294;SDS011;16305;48.566;8.846;2022-09-09T14:31:23;1.23;;;0.23;;
29294;SDS011;16305;48.566;8.846;2022-09-09T14:33:49;1.90;;;0.50;;
29294;SDS011;16305;48.566;8.846;2022-09-09T14:36:15;2.00;;;0.47;;
29294;SDS011;16305;48.566;8.846;2022-09-09T14:38:41;1.77;;;0.40;;
29294;SDS011;16305;48.566;8.846;2022-09-09T14:41:09;2.10;;;0.50;;
29294;SDS011;16305;48.566;8.846;2022-09-09T14:43:37;2.10;;;0.47;;
29294;SDS011;16305;48.566;8.846;2022-09-09T14:46:04;2.93;;;0.70;;
29294;SDS011;16305;48.566;8.846;2022-09-09T14:48:31;0.30;;;0.23;;
29294;SDS011;16305;48.566;8.846;2022-09-09T14:51:03;4.03;;;0.50;;
29294;SDS011;16305;48.566;8.846;2022-09-09T14:53:30;1.20;;;0.40;;
29294;SDS011;16305;48.566;8.846;2022-09-09T14:56:02;2.43;;;0.40;;
29294;SDS011;16305;48.566;8.846;2022-09-09T14:58:32;4.03;;;0.60;;
29294;SDS011;16305;48.566;8.846;2022-09-09T15:01:01;1.97;;;0.30;;
29294;SDS011;16305;48.566;8.846;2022-09-09T15:03:31;1.20;;;0.20;;
29294;SDS011;16305;48.566;8.846;2022-09-09T15:05:57;3.70;;;0.30;;
29294;SDS011;16305;48.566;8.846;2022-09-09T15:08:25;1.77;;;0.50;;
29294;SDS011;16305;48.566;8.846;2022-09-09T15:10:58;0.87;;;0.27;;
29294;SDS011;16305;48.566;8.846;2022-09-09T15:13:25;1.33;;;0.30;;
29294;SDS011;16305;48.566;8.846;2022-09-09T15:15:50;2.10;;;0.40;;
29294;SDS011;16305;48.566;8.846;2022-09-09T15:18:16;2.07;;;0.40;;
29294;SDS011;16305;48.566;8.846;2022-09-09T15:20:44;1.53;;;0.60;;
29294;SDS011;16305;48.566;8.846;2022-09-09T15:23:11;1.77;;;0.33;;
29294;SDS011;16305;48.566;8.846;2022-09-09T15:25:37;1.57;;;0.50;;
29294;SDS011;16305;48.566;8.846;2022-09-09T15:28:02;1.43;;;0.40;;
29294;SDS011;16305;48.566;8.846;2022-09-09T15:30:28;4.03;;;1.30;;
29294;SDS011;16305;48.566;8.846;2022-09-09T15:32:53;2.43;;;0.40;;
29294;SDS011;16305;48.566;8.846;2022-09-09T15:35:19;1.80;;;0.63;;
29294;SDS011;16305;48.566;8.846;2022-09-09T15:37:45;2.17;;;0.50;;
29294;SDS011;16305;48.566;8.846;2022-09-09T15:40:10;1.00;;;0.50;;
29294;SDS011;16305;48.566;8.846;2022-09-09T15:42:36;1.93;;;0.50;;
29294;SDS011;16305;48.566;8.846;2022-09-09T15:45:02;1.20;;;0.30;;
29294;SDS011;16305;48.566;8.846;2022-09-09T15:47:29;0.93;;;0.30;;
29294;SDS011;16305;48.566;8.846;2022-09-09T15:49:55;4.43;;;0.40;;
29294;SDS011;16305;48.566;8.846;2022-09-09T15:52:21;3.30;;;0.60;;
29294;SDS011;16305;48.566;8.846;2022-09-09T15:54:46;1.07;;;0.40;;
29294;SDS011;16305;48.566;8.846;2022-09-09T15:57:14;0.40;;;0.20;;
29294;SDS011;16305;48.566;8.846;2022-09-09T15:59:39;1.23;;;0.40;;
29294;SDS011;16305;48.566;8.846;2022-09-09T16:02:05;2.23;;;0.30;;
29294;SDS011;16305;48.566;8.846;2022-09-09T16:04:31;2.70;;;0.40;;
29294;SDS011;16305;48.566;8.846;2022-09-09T16:07:00;2.00;;;0.30;;
29294;SDS011;16305;48.566;8.846;2022-09-09T16:09:28;2.53;;;0.27;;
29294;SDS011;16305;48.566;8.846;2022-09-09T16:11:55;0.70;;;0.33;;
29294;SDS011;16305;48.566;8.846;2022-09-09T16:14:23;3.33;;;0.43;;
29294;SDS011;16305;48.566;8.846;2022-09-09T16:16:49;2.83;;;0.10;;
29294;SDS011;16305;48.566;8.846;2022-09-09T16:19:15;1.07;;;0.20;;
29294;SDS011;16305;48.566;8.846;2022-09-09T16:21:44;0.40;;;0.20;;
29294;SDS011;16305;48.566;8.846;2022-09-09T16:24:13;0.50;;;0.20;;
29294;SDS011;16305;48.566;8.846;2022-09-09T16:26:41;0.67;;;0.20;;
29294;SDS011;16305;48.566;8.846;2022-09-09T16:29:09;0.73;;;0.27;;
29294;SDS011;16305;48.566;8.846;2022-09-09T16:31:36;3.60;;;0.63;;
29294;SDS011;16305;48.566;8.846;2022-09-09T16:34:02;1.23;;;0.30;;
29294;SDS011;16305;48.566;8.846;2022-09-09T16:36:31;0.60;;;0.20;;
29294;SDS011;16305;48.566;8.846;2022-09-09T16:39:00;0.80;;;0.30;;
29294;SDS011;16305;48.566;8.846;2022-09-09T16:41:30;4.07;;;0.43;;
29294;SDS011;16305;48.566;8.846;2022-09-09T16:43:57;0.70;;;0.20;;
29294;SDS011;16305;48.566;8.846;2022-09-09T16:46:28;0.23;;;0.20;;
29294;SDS011;16305;48.566;8.846;2022-09-09T16:48:56;0.50;;;0.30;;
29294;SDS011;16305;48.566;8.846;2022-09-09T16:51:27;1.80;;;0.50;;
29294;SDS011;16305;48.566;8.846;2022-09-09T16:53:54;0.30;;;0.30;;
29294;SDS011;16305;48.566;8.846;2022-09-09T16:56:23;0.70;;;0.50;;
29294;SDS011;16305;48.566;8.846;2022-09-09T16:58:54;2.83;;;0.53;;
29294;SDS011;16305;48.566;8.846;2022-09-09T17:01:22;1.87;;;1.23;;
29294;SDS011;16305;48.566;8.846;2022-09-09T17:03:52;2.27;;;0.60;;
29294;SDS011;16305;48.566;8.846;2022-09-09T17:06:18;0.77;;;0.40;;
29294;SDS011;16305;48.566;8.846;2022-09-09T17:08:44;2.13;;;0.40;;
29294;SDS011;16305;48.566;8.846;2022-09-09T17:11:16;2.43;;;0.67;;